createdAt,value
2023-02-07T00:00:17.518Z,244.73
2023-02-07T00:01:17.434Z,244.73
2023-02-07T00:02:18.366Z,242.73
2023-02-07T00:03:17.461Z,242.73
2023-02-07T00:04:17.426Z,242.91
2023-02-07T00:05:17.419Z,240.41
2023-02-07T00:06:17.423Z,238.31
2023-02-07T00:07:17.389Z,237.61
2023-02-07T00:08:17.372Z,237.10
2023-02-07T00:09:17.455Z,235.73
2023-02-07T00:10:17.376Z,232.88
2023-02-07T00:11:17.323Z,232.38
2023-02-07T00:12:17.380Z,231.88
2023-02-07T00:13:17.318Z,230.74
2023-02-07T00:14:17.299Z,228.64
2023-02-07T00:15:17.478Z,225.18
2023-02-07T00:16:17.377Z,226.27
2023-02-07T00:17:17.277Z,223.94
2023-02-07T00:18:17.295Z,223.33
2023-02-07T00:19:17.276Z,222.87
2023-02-07T00:20:17.299Z,220.76
2023-02-07T00:21:17.289Z,221.51
2023-02-07T00:22:17.399Z,219.73
2023-02-07T00:23:17.239Z,219.28
2023-02-07T00:24:17.238Z,219.73
2023-02-07T00:25:17.205Z,218.40
2023-02-07T00:26:17.210Z,216.67
2023-02-07T00:27:17.762Z,216.81
2023-02-07T00:28:17.265Z,214.82
2023-02-07T00:29:17.207Z,215.24
2023-02-07T00:30:17.206Z,213.97
2023-02-07T00:31:17.324Z,212.72
2023-02-07T00:32:17.200Z,212.58
2023-02-07T00:33:17.168Z,212.30
2023-02-07T00:34:17.143Z,211.07
2023-02-07T00:35:17.214Z,210.12
2023-02-07T00:36:17.146Z,208.91
2023-02-07T00:37:17.202Z,206.93
2023-02-07T00:38:17.097Z,205.37
2023-02-07T00:39:17.089Z,203.96
2023-02-07T00:40:17.065Z,203.32
2023-02-07T00:41:17.085Z,202.07
2023-02-07T00:42:17.057Z,202.19
2023-02-07T00:43:29.121Z,200.70
2023-02-07T00:44:17.049Z,200.21
2023-02-07T00:45:17.058Z,197.55
2023-02-07T00:46:17.171Z,197.19
2023-02-07T00:47:17.128Z,196.48
2023-02-07T00:48:17.024Z,195.66
2023-02-07T00:49:16.981Z,193.69
2023-02-07T00:50:16.987Z,191.98
2023-02-07T00:51:17.008Z,192.43
2023-02-07T00:52:16.984Z,191.20
2023-02-07T00:53:16.979Z,187.25
2023-02-07T00:54:16.997Z,187.79
2023-02-07T00:55:16.924Z,187.36
2023-02-07T00:56:17.090Z,185.97
2023-02-07T00:57:16.941Z,186.38
2023-02-07T00:58:16.913Z,186.17
2023-02-07T00:59:16.952Z,184.82
2023-02-07T01:00:16.893Z,186.17
2023-02-07T01:01:17.027Z,186.17
2023-02-07T01:02:16.874Z,184.82
2023-02-07T01:03:16.850Z,186.80
2023-02-07T01:04:16.860Z,184.82
2023-02-07T01:05:16.880Z,185.34
2023-02-07T01:06:16.845Z,185.45
2023-02-07T01:07:16.862Z,185.66
2023-02-07T01:08:16.885Z,185.03
2023-02-07T01:09:16.849Z,186.17
2023-02-07T01:10:16.860Z,185.75
2023-02-07T01:11:16.869Z,186.17
2023-02-07T01:12:16.843Z,182.49
2023-02-07T01:13:16.788Z,183.70
2023-02-07T01:14:16.852Z,183.90
2023-02-07T01:15:16.780Z,183.50
2023-02-07T01:16:16.867Z,184.93
2023-02-07T01:17:16.739Z,184.11
2023-02-07T01:18:16.771Z,183.30
2023-02-07T01:19:17.501Z,184.11
2023-02-07T01:20:16.793Z,185.96
2023-02-07T01:21:16.727Z,185.55
2023-02-07T01:22:16.688Z,186.17
2023-02-07T01:23:16.683Z,185.13
2023-02-07T01:24:16.841Z,186.59
2023-02-07T01:25:16.703Z,185.13
2023-02-07T01:26:16.665Z,185.34
2023-02-07T01:27:16.688Z,185.55
2023-02-07T01:28:16.729Z,184.71
2023-02-07T01:29:16.656Z,186.08
2023-02-07T01:30:16.635Z,184.82
2023-02-07T01:31:16.715Z,184.92
2023-02-07T01:32:16.622Z,186.19
2023-02-07T01:33:16.599Z,185.34
2023-02-07T01:34:16.599Z,187.01
2023-02-07T01:35:16.568Z,185.55
2023-02-07T01:36:16.589Z,185.75
2023-02-07T01:37:16.596Z,184.72
2023-02-07T01:38:16.614Z,183.90
2023-02-07T01:39:16.552Z,182.09
2023-02-07T01:40:16.545Z,181.30
2023-02-07T01:41:16.563Z,178.76
2023-02-07T01:42:16.520Z,178.96
2023-02-07T01:43:16.485Z,177.43
2023-02-07T01:44:16.543Z,175.55
2023-02-07T01:45:16.466Z,175.18
2023-02-07T01:46:16.487Z,174.08
2023-02-07T01:47:16.446Z,173.54
2023-02-07T01:48:16.460Z,172.82
2023-02-07T01:49:16.447Z,173.18
2023-02-07T01:50:16.433Z,173.90
2023-02-07T01:51:16.425Z,173.72
2023-02-07T01:52:16.433Z,174.27
2023-02-07T01:53:16.439Z,173.18
2023-02-07T01:54:16.446Z,173.72
2023-02-07T01:55:16.420Z,173.18
2023-02-07T01:56:30.559Z,173.36
2023-02-07T01:57:16.413Z,175.37
2023-02-07T01:58:16.384Z,174.82
2023-02-07T01:59:16.333Z,176.67
2023-02-07T02:00:16.450Z,179.15
2023-02-07T02:01:16.374Z,178.96
2023-02-07T02:02:16.382Z,180.90
2023-02-07T02:03:16.373Z,181.30
2023-02-07T02:04:16.315Z,182.29
2023-02-07T02:05:16.358Z,183.30
2023-02-07T02:06:16.275Z,183.30
2023-02-07T02:07:16.303Z,183.70
2023-02-07T02:08:16.289Z,185.75
2023-02-07T02:09:16.306Z,184.71
2023-02-07T02:10:16.312Z,185.34
2023-02-07T02:11:16.245Z,186.08
2023-02-07T02:12:16.226Z,186.61
2023-02-07T02:13:16.255Z,185.97
2023-02-07T02:14:16.746Z,186.72
2023-02-07T02:15:16.196Z,185.87
2023-02-07T02:16:16.205Z,186.40
2023-02-07T02:17:16.270Z,186.19
2023-02-07T02:18:16.174Z,187.68
2023-02-07T02:19:16.210Z,187.36
2023-02-07T02:20:16.159Z,187.68
2023-02-07T02:21:16.170Z,186.61
2023-02-07T02:22:16.184Z,188.11
2023-02-07T02:23:16.123Z,188.98
2023-02-07T02:24:16.140Z,189.31
2023-02-07T02:25:16.204Z,189.09
2023-02-07T02:26:16.155Z,189.53
2023-02-07T02:27:16.135Z,188.88
2023-02-07T02:28:16.163Z,188.44
2023-02-07T02:29:16.086Z,189.09
2023-02-07T02:30:16.100Z,189.86
2023-02-07T02:31:16.112Z,189.75
2023-02-07T02:32:16.150Z,189.64
2023-02-07T02:33:16.043Z,189.53
2023-02-07T02:34:16.161Z,190.64
2023-02-07T02:35:16.062Z,189.53
2023-02-07T02:36:16.029Z,189.86
2023-02-07T02:37:15.994Z,189.31
2023-02-07T02:38:16.017Z,189.97
2023-02-07T02:39:15.981Z,190.41
2023-02-07T02:40:16.080Z,191.87
2023-02-07T02:41:16.002Z,193.23
2023-02-07T02:42:15.982Z,193.00
2023-02-07T02:43:15.979Z,192.89
2023-02-07T02:44:15.927Z,193.23
2023-02-07T02:45:15.983Z,193.69
2023-02-07T02:46:15.959Z,193.46
2023-02-07T02:47:15.959Z,194.49
2023-02-07T02:48:15.976Z,194.73
2023-02-07T02:49:15.962Z,195.19
2023-02-07T02:50:15.926Z,196.13
2023-02-07T02:51:15.923Z,197.67
2023-02-07T02:52:15.882Z,197.55
2023-02-07T02:53:15.855Z,200.70
2023-02-07T02:54:15.911Z,200.58
2023-02-07T02:55:15.867Z,201.82
2023-02-07T02:56:15.964Z,203.07
2023-02-07T02:57:15.817Z,206.15
2023-02-07T02:58:15.879Z,206.93
2023-02-07T02:59:15.870Z,207.98
2023-02-07T03:00:15.835Z,209.05
2023-02-07T03:01:15.789Z,209.85
2023-02-07T03:02:15.784Z,210.12
2023-02-07T03:03:15.803Z,210.26
2023-02-07T03:04:15.777Z,211.34
2023-02-07T03:05:15.805Z,212.44
2023-02-07T03:06:15.794Z,213.55
2023-02-07T03:07:15.746Z,212.72
2023-02-07T03:08:15.776Z,213.14
2023-02-07T03:09:15.751Z,213.27
2023-02-07T03:10:15.757Z,213.27
2023-02-07T03:11:15.858Z,213.41
2023-02-07T03:12:15.747Z,214.39
2023-02-07T03:13:15.707Z,215.67
2023-02-07T03:14:15.681Z,218.11
2023-02-07T03:15:15.720Z,219.58
2023-02-07T03:16:15.747Z,221.21
2023-02-07T03:17:15.700Z,223.33
2023-02-07T03:18:15.644Z,224.25
2023-02-07T03:19:15.679Z,224.87
2023-02-07T03:20:15.657Z,226.42
2023-02-07T03:21:15.693Z,226.27
2023-02-07T03:22:15.603Z,228.00
2023-02-07T03:23:15.613Z,229.76
2023-02-07T03:24:15.595Z,231.39
2023-02-07T03:25:15.601Z,232.05
2023-02-07T03:26:15.586Z,231.72
2023-02-07T03:27:15.581Z,231.23
2023-02-07T03:28:15.686Z,231.55
2023-02-07T03:29:15.614Z,230.57
2023-02-07T03:30:15.617Z,230.74
2023-02-07T03:31:15.543Z,228.64
2023-02-07T03:32:15.757Z,227.21
2023-02-07T03:33:15.604Z,225.18
2023-02-07T03:34:15.566Z,225.80
2023-02-07T03:35:15.630Z,223.02
2023-02-07T03:36:15.560Z,221.36
2023-02-07T03:37:15.528Z,219.58
2023-02-07T03:38:15.496Z,218.70
2023-02-07T03:39:15.481Z,217.24
2023-02-07T03:40:15.469Z,215.95
2023-02-07T03:41:16.770Z,214.82
2023-02-07T03:42:15.441Z,214.25
2023-02-07T03:43:15.439Z,213.83
2023-02-07T03:44:15.410Z,212.58
2023-02-07T03:45:15.391Z,211.21
2023-02-07T03:46:15.396Z,210.53
2023-02-07T03:47:15.386Z,209.99
2023-02-07T03:48:15.374Z,210.12
2023-02-07T03:49:15.396Z,209.72
2023-02-07T03:50:15.353Z,209.31
2023-02-07T03:51:15.389Z,208.51
2023-02-07T03:52:15.340Z,207.45
2023-02-07T03:53:15.364Z,208.65
2023-02-07T03:54:15.350Z,208.12
2023-02-07T03:55:15.342Z,208.78
2023-02-07T03:56:15.313Z,207.59
2023-02-07T03:57:15.302Z,207.19
2023-02-07T03:58:15.324Z,206.93
2023-02-07T03:59:15.409Z,206.15
2023-02-07T04:00:15.254Z,205.37
2023-02-07T04:01:15.376Z,204.98
2023-02-07T04:02:15.391Z,203.96
2023-02-07T04:03:15.238Z,202.32
2023-02-07T04:04:15.260Z,201.20
2023-02-07T04:05:15.255Z,201.32
2023-02-07T04:06:15.208Z,201.32
2023-02-07T04:07:15.272Z,201.07
2023-02-07T04:08:15.206Z,201.32
2023-02-07T04:09:15.212Z,201.07
2023-02-07T04:10:15.210Z,200.46
2023-02-07T04:11:15.174Z,199.97
2023-02-07T04:12:15.162Z,199.11
2023-02-07T04:13:15.275Z,198.87
2023-02-07T04:14:15.203Z,200.34
2023-02-07T04:15:15.187Z,200.70
2023-02-07T04:16:15.157Z,200.46
2023-02-07T04:17:15.101Z,200.70
2023-02-07T04:18:15.120Z,202.07
2023-02-07T04:19:15.165Z,202.57
2023-02-07T04:20:15.101Z,202.32
2023-02-07T04:21:15.127Z,202.57
2023-02-07T04:22:15.091Z,200.70
2023-02-07T04:23:15.124Z,198.27
2023-02-07T04:24:15.043Z,198.75
2023-02-07T04:25:15.097Z,198.87
2023-02-07T04:26:15.051Z,199.11
2023-02-07T04:27:15.083Z,199.97
2023-02-07T04:28:15.092Z,199.72
2023-02-07T04:29:14.996Z,199.36
2023-02-07T04:30:14.979Z,199.48
2023-02-07T04:31:15.062Z,198.39
2023-02-07T04:32:14.987Z,198.39
2023-02-07T04:33:14.997Z,197.67
2023-02-07T04:34:15.061Z,197.91
2023-02-07T04:35:14.967Z,198.03
2023-02-07T04:36:14.922Z,198.39
2023-02-07T04:37:14.980Z,198.63
2023-02-07T04:38:14.949Z,197.91
2023-02-07T04:39:14.935Z,198.39
2023-02-07T04:40:14.911Z,198.27
2023-02-07T04:41:14.934Z,196.36
2023-02-07T04:42:14.899Z,195.19
2023-02-07T04:43:14.906Z,195.07
2023-02-07T04:44:14.964Z,194.49
2023-02-07T04:45:14.881Z,195.42
2023-02-07T04:46:14.997Z,195.54
2023-02-07T04:47:14.880Z,196.36
2023-02-07T04:48:14.841Z,196.96
2023-02-07T04:49:14.837Z,196.72
2023-02-07T04:50:14.837Z,198.15
2023-02-07T04:51:14.811Z,198.03
2023-02-07T04:52:14.850Z,198.51
2023-02-07T04:53:15.746Z,198.99
2023-02-07T04:54:14.775Z,198.27
2023-02-07T04:55:14.813Z,198.51
2023-02-07T04:56:14.759Z,197.67
2023-02-07T04:57:14.749Z,197.91
2023-02-07T04:58:14.798Z,197.55
2023-02-07T04:59:14.764Z,196.84
2023-02-07T05:00:14.746Z,197.19
2023-02-07T05:01:14.923Z,195.89
2023-02-07T05:02:14.715Z,194.84
2023-02-07T05:03:14.739Z,194.15
2023-02-07T05:04:14.822Z,192.89
2023-02-07T05:05:14.700Z,191.08
2023-02-07T05:06:14.709Z,190.86
2023-02-07T05:07:14.698Z,191.53
2023-02-07T05:08:14.673Z,190.75
2023-02-07T05:09:14.672Z,189.42
2023-02-07T05:10:14.680Z,190.97
2023-02-07T05:11:14.738Z,190.53
2023-02-07T05:12:14.645Z,191.42
2023-02-07T05:13:14.653Z,191.31
2023-02-07T05:14:14.610Z,191.53
2023-02-07T05:15:14.598Z,193.23
2023-02-07T05:16:14.580Z,192.55
2023-02-07T05:17:14.637Z,193.34
2023-02-07T05:18:14.575Z,191.87
2023-02-07T05:19:14.570Z,191.31
2023-02-07T05:20:14.633Z,191.42
2023-02-07T05:21:14.532Z,189.75
2023-02-07T05:22:14.533Z,185.34
2023-02-07T05:23:14.547Z,184.52
2023-02-07T05:24:14.552Z,183.70
2023-02-07T05:25:14.530Z,181.89
2023-02-07T05:26:14.512Z,181.49
2023-02-07T05:27:14.564Z,180.51
2023-02-07T05:28:14.533Z,179.92
2023-02-07T05:29:14.522Z,180.51
2023-02-07T05:30:14.473Z,179.92
2023-02-07T05:31:14.642Z,179.73
2023-02-07T05:32:14.471Z,178.57
2023-02-07T05:33:14.446Z,177.81
2023-02-07T05:34:14.445Z,174.82
2023-02-07T05:35:14.498Z,173.72
2023-02-07T05:36:14.804Z,173.90
2023-02-07T05:37:16.280Z,174.08
2023-02-07T05:38:14.422Z,174.45
2023-02-07T05:39:14.532Z,171.39
2023-02-07T05:40:14.489Z,170.86
2023-02-07T05:41:14.449Z,170.34
2023-02-07T05:42:14.417Z,171.57
2023-02-07T05:43:14.416Z,172.10
2023-02-07T05:44:14.345Z,172.46
2023-02-07T05:45:14.410Z,173.36
2023-02-07T05:46:14.398Z,174.08
2023-02-07T05:47:14.320Z,174.45
2023-02-07T05:48:14.306Z,175.74
2023-02-07T05:49:14.336Z,178.57
2023-02-07T05:50:14.303Z,180.31
2023-02-07T05:51:14.377Z,180.51
2023-02-07T05:52:14.263Z,180.12
2023-02-07T05:53:14.250Z,179.34
2023-02-07T05:54:14.280Z,177.62
2023-02-07T05:55:14.255Z,177.43
2023-02-07T05:56:14.235Z,176.67
2023-02-07T05:57:14.227Z,175.74
2023-02-07T05:58:14.254Z,173.90
2023-02-07T05:59:14.201Z,173.72
2023-02-07T06:00:14.213Z,172.46
2023-02-07T06:01:14.254Z,171.21
2023-02-07T06:02:14.212Z,170.69
2023-02-07T06:03:14.243Z,169.64
2023-02-07T06:04:14.180Z,169.47
2023-02-07T06:05:14.151Z,167.42
2023-02-07T06:06:14.147Z,166.92
2023-02-07T06:07:14.160Z,167.93
2023-02-07T06:08:14.455Z,167.59
2023-02-07T06:09:14.219Z,168.95
2023-02-07T06:10:14.191Z,169.30
2023-02-07T06:11:14.158Z,169.82
2023-02-07T06:12:14.071Z,170.34
2023-02-07T06:13:14.033Z,169.99
2023-02-07T06:14:14.028Z,170.16
2023-02-07T06:15:14.060Z,169.82
2023-02-07T06:16:14.086Z,169.47
2023-02-07T06:17:14.018Z,169.47
2023-02-07T06:18:13.975Z,168.44
2023-02-07T06:19:13.974Z,167.93
2023-02-07T06:20:14.039Z,167.59
2023-02-07T06:21:13.998Z,168.44
2023-02-07T06:22:13.930Z,168.95
2023-02-07T06:23:14.004Z,169.82
2023-02-07T06:24:13.922Z,171.04
2023-02-07T06:25:13.918Z,173.18
2023-02-07T06:26:13.914Z,175.18
2023-02-07T06:27:14.030Z,175.55
2023-02-07T06:28:13.995Z,174.27
2023-02-07T06:29:13.903Z,176.67
2023-02-07T06:30:13.898Z,176.49
2023-02-07T06:31:14.093Z,177.62
2023-02-07T06:32:14.581Z,178.96
2023-02-07T06:33:13.928Z,180.12
2023-02-07T06:34:13.925Z,181.49
2023-02-07T06:35:13.987Z,182.09
2023-02-07T06:36:13.924Z,184.11
2023-02-07T06:37:13.836Z,186.17
2023-02-07T06:38:13.809Z,184.93
2023-02-07T06:39:14.392Z,184.52
2023-02-07T06:40:13.863Z,184.93
2023-02-07T06:41:13.781Z,183.50
2023-02-07T06:42:13.792Z,183.70
2023-02-07T06:43:13.796Z,184.52
2023-02-07T06:44:13.797Z,184.92
2023-02-07T06:45:14.209Z,186.38
2023-02-07T06:46:14.053Z,186.17
2023-02-07T06:47:13.759Z,185.34
2023-02-07T06:48:13.749Z,186.19
2023-02-07T06:49:13.709Z,185.24
2023-02-07T06:50:13.733Z,186.40
2023-02-07T06:51:13.687Z,188.01
2023-02-07T06:52:13.762Z,188.44
2023-02-07T06:53:13.718Z,187.90
2023-02-07T06:54:13.742Z,185.76
2023-02-07T06:55:13.649Z,186.19
2023-02-07T06:56:13.708Z,184.52
2023-02-07T06:57:13.632Z,183.30
2023-02-07T06:58:13.631Z,180.31
2023-02-07T06:59:13.652Z,179.34
2023-02-07T07:00:13.666Z,182.89
2023-02-07T07:01:13.608Z,184.31
2023-02-07T07:02:13.635Z,185.96
2023-02-07T07:03:13.594Z,184.82
2023-02-07T07:04:13.580Z,185.75
2023-02-07T07:05:15.503Z,184.92
2023-02-07T07:06:13.552Z,185.55
2023-02-07T07:07:13.547Z,185.66
2023-02-07T07:08:13.613Z,186.50
2023-02-07T07:09:13.539Z,188.44
2023-02-07T07:10:13.586Z,189.20
2023-02-07T07:11:13.569Z,188.66
2023-02-07T07:12:13.570Z,187.04
2023-02-07T07:13:13.498Z,185.03
2023-02-07T07:14:14.220Z,185.24
2023-02-07T07:15:13.536Z,184.93
2023-02-07T07:16:13.522Z,184.61
2023-02-07T07:17:13.520Z,186.38
2023-02-07T07:18:13.928Z,184.11
2023-02-07T07:19:13.666Z,185.96
2023-02-07T07:20:13.533Z,185.55
2023-02-07T07:21:13.444Z,185.34
2023-02-07T07:22:13.477Z,186.61
2023-02-07T07:23:13.497Z,188.01
2023-02-07T07:24:14.133Z,187.15
2023-02-07T07:25:13.574Z,188.33
2023-02-07T07:26:13.524Z,186.72
2023-02-07T07:27:13.500Z,187.90
2023-02-07T07:28:13.544Z,187.25
2023-02-07T07:29:13.367Z,189.09
2023-02-07T07:30:13.597Z,191.08
2023-02-07T07:31:13.475Z,199.36
2023-02-07T07:32:25.022Z,202.57
2023-02-07T07:33:13.533Z,208.12
2023-02-07T07:34:13.378Z,210.12
2023-02-07T07:35:13.543Z,218.55
2023-02-07T07:36:13.324Z,223.02
2023-02-07T07:37:13.324Z,226.58
2023-02-07T07:38:13.439Z,226.74
2023-02-07T07:39:13.357Z,225.49
2023-02-07T07:40:13.349Z,226.27
2023-02-07T07:41:13.249Z,225.49
2023-02-07T07:42:13.305Z,227.05
2023-02-07T07:43:13.252Z,229.12
2023-02-07T07:44:13.446Z,235.22
2023-02-07T07:45:13.324Z,238.48
2023-02-07T07:46:13.435Z,240.59
2023-02-07T07:47:13.328Z,246.39
2023-02-07T07:48:13.272Z,251.90
2023-02-07T07:49:13.370Z,257.45
2023-02-07T07:50:13.284Z,262.62
2023-02-07T07:51:13.329Z,265.18
2023-02-07T07:52:13.906Z,269.11
2023-02-07T07:53:13.448Z,275.23
2023-02-07T07:54:13.243Z,280.66
2023-02-07T07:55:13.153Z,285.07
2023-02-07T07:56:13.258Z,292.20
2023-02-07T07:57:13.165Z,301.36
2023-02-07T07:58:13.360Z,307.60
2023-02-07T07:59:23.713Z,314.10
2023-02-07T08:00:13.082Z,313.20
2023-02-07T08:01:13.213Z,307.60
2023-02-07T08:02:13.091Z,307.31
2023-02-07T08:03:13.049Z,306.16
2023-02-07T08:04:13.263Z,305.59
2023-02-07T08:05:13.909Z,304.73
2023-02-07T08:06:13.042Z,305.59
2023-02-07T08:07:13.067Z,308.47
2023-02-07T08:08:13.031Z,312.00
2023-02-07T08:09:13.015Z,323.11
2023-02-07T08:10:13.043Z,338.50
2023-02-07T08:11:13.041Z,350.10
2023-02-07T08:12:12.982Z,352.36
2023-02-07T08:13:12.991Z,343.12
2023-02-07T08:14:12.977Z,336.06
2023-02-07T08:15:12.988Z,341.68
2023-02-07T08:16:12.994Z,347.86
2023-02-07T08:17:12.930Z,349.72
2023-02-07T08:18:12.942Z,353.89
2023-02-07T08:19:12.925Z,357.37
2023-02-07T08:20:13.022Z,358.15
2023-02-07T08:21:12.906Z,348.98
2023-02-07T08:22:12.885Z,343.84
2023-02-07T08:23:12.971Z,344.93
2023-02-07T08:24:12.939Z,355.81
2023-02-07T08:25:13.046Z,370.33
2023-02-07T08:26:12.856Z,372.01
2023-02-07T08:27:12.858Z,382.24
2023-02-07T08:28:12.906Z,380.93
2023-02-07T08:29:12.836Z,384.68
2023-02-07T08:30:12.839Z,402.38
2023-02-07T08:31:12.913Z,408.32
2023-02-07T08:32:12.914Z,419.67
2023-02-07T08:33:12.947Z,434.49
2023-02-07T08:34:12.816Z,450.70
2023-02-07T08:35:12.855Z,463.60
2023-02-07T08:36:12.850Z,478.97
2023-02-07T08:37:12.822Z,500.25
2023-02-07T08:38:12.752Z,499.12
2023-02-07T08:39:12.739Z,504.05
2023-02-07T08:40:12.759Z,519.01
2023-02-07T08:41:12.741Z,522.28
2023-02-07T08:42:12.726Z,515.79
2023-02-07T08:43:12.733Z,522.28
2023-02-07T08:44:12.671Z,531.89
2023-02-07T08:45:12.824Z,544.09
2023-02-07T08:46:12.809Z,550.86
2023-02-07T08:47:12.735Z,555.46
2023-02-07T08:48:12.636Z,564.43
2023-02-07T08:49:12.765Z,576.18
2023-02-07T08:50:12.769Z,572.70
2023-02-07T08:51:12.652Z,567.32
2023-02-07T08:52:12.627Z,575.18
2023-02-07T08:53:12.622Z,594.22
2023-02-07T08:54:12.601Z,613.99
2023-02-07T08:55:12.597Z,650.03
2023-02-07T08:56:12.561Z,671.05
2023-02-07T08:57:12.564Z,684.18
2023-02-07T08:58:12.574Z,710.52
2023-02-07T08:59:12.532Z,703.74
2023-02-07T09:00:12.573Z,704.49
2023-02-07T09:01:12.603Z,707.49
2023-02-07T09:02:12.530Z,703.74
2023-02-07T09:03:13.692Z,727.64
2023-02-07T09:04:12.556Z,754.82
2023-02-07T09:05:12.502Z,789.32
2023-02-07T09:06:12.481Z,842.30
2023-02-07T09:07:12.454Z,896.23
2023-02-07T09:08:12.448Z,919.14
2023-02-07T09:09:12.440Z,932.68
2023-02-07T09:10:12.457Z,963.07
2023-02-07T09:11:12.430Z,977.94
2023-02-07T09:12:12.469Z,1004.53
2023-02-07T09:13:12.421Z,1054.72
2023-02-07T09:14:12.400Z,1070.85
2023-02-07T09:15:12.523Z,1073.45
2023-02-07T09:16:12.374Z,1083.94
2023-02-07T09:17:12.389Z,1107.41
2023-02-07T09:18:12.372Z,1116.71
2023-02-07T09:19:12.337Z,1135.78
2023-02-07T09:20:12.386Z,1139.67
2023-02-07T09:21:12.342Z,1143.59
2023-02-07T09:22:12.307Z,1143.59
2023-02-07T09:23:12.367Z,1157.53
2023-02-07T09:24:12.320Z,1176.99
2023-02-07T09:25:12.289Z,1197.12
2023-02-07T09:26:12.318Z,1233.77
2023-02-07T09:27:12.308Z,1248.83
2023-02-07T09:28:12.366Z,1261.86
2023-02-07T09:29:12.259Z,1248.83
2023-02-07T09:30:12.303Z,1253.53
2023-02-07T09:31:12.351Z,1266.67
2023-02-07T09:32:12.263Z,1297.56
2023-02-07T09:33:12.334Z,1312.93
2023-02-07T09:34:12.433Z,1330.00
2023-02-07T09:35:12.222Z,1354.38
2023-02-07T09:36:12.237Z,1326.02
2023-02-07T09:37:12.249Z,1355.76
2023-02-07T09:38:12.296Z,1350.25
2023-02-07T09:39:12.226Z,1365.50
2023-02-07T09:40:12.184Z,1357.14
2023-02-07T09:41:12.275Z,1358.53
2023-02-07T09:42:12.152Z,1365.50
2023-02-07T09:43:12.314Z,1405.92
2023-02-07T09:44:12.285Z,1440.95
2023-02-07T09:45:12.250Z,1471.24
2023-02-07T09:46:12.203Z,1492.70
2023-02-07T09:47:12.127Z,1481.07
2023-02-07T09:48:12.082Z,1479.42
2023-02-07T09:49:12.070Z,1450.38
2023-02-07T09:50:12.096Z,1459.93
2023-02-07T09:51:12.146Z,1336.68
2023-02-07T09:52:12.021Z,1346.15
2023-02-07T09:53:12.087Z,1285.02
2023-02-07T09:54:12.011Z,1310.34
2023-02-07T09:55:12.083Z,1414.89
2023-02-07T09:56:12.026Z,1489.36
2023-02-07T09:57:11.987Z,1539.35
2023-02-07T09:58:12.001Z,1540.24
2023-02-07T09:59:11.964Z,1523.48
2023-02-07T10:00:12.016Z,1561.03
2023-02-07T10:01:11.971Z,1627.91
2023-02-07T10:02:12.017Z,1682.48
2023-02-07T10:03:11.954Z,1698.59
2023-02-07T10:04:11.916Z,1676.12
2023-02-07T10:05:11.917Z,1674.01
2023-02-07T10:06:18.452Z,1646.04
2023-02-07T10:07:11.913Z,1659.39
2023-02-07T10:08:11.926Z,1695.35
2023-02-07T10:09:11.944Z,1715.02
2023-02-07T10:10:12.084Z,1768.62
2023-02-07T10:11:11.862Z,1815.70
2023-02-07T10:12:11.905Z,1810.76
2023-02-07T10:13:11.859Z,1820.67
2023-02-07T10:14:11.901Z,1833.22
2023-02-07T10:15:11.837Z,1823.17
2023-02-07T10:16:11.970Z,1820.67
2023-02-07T10:17:16.610Z,1816.94
2023-02-07T10:18:11.927Z,1851.08
2023-02-07T10:19:11.799Z,1893.24
2023-02-07T10:20:11.835Z,1961.65
2023-02-07T10:21:11.808Z,2001.50
2023-02-07T10:22:11.917Z,1995.50
2023-02-07T10:23:11.760Z,1958.76
2023-02-07T10:24:11.795Z,1945.87
2023-02-07T10:25:11.758Z,1934.55
2023-02-07T10:26:11.728Z,1934.55
2023-02-07T10:27:11.747Z,1920.58
2023-02-07T10:28:12.725Z,2027.44
2023-02-07T10:29:11.758Z,2086.27
2023-02-07T10:30:11.679Z,2136.55
2023-02-07T10:31:11.787Z,2126.30
2023-02-07T10:32:11.666Z,2078.12
2023-02-07T10:33:11.689Z,2032.08
2023-02-07T10:34:11.731Z,2091.20
2023-02-07T10:35:11.665Z,2065.22
2023-02-07T10:36:11.703Z,2091.20
2023-02-07T10:37:11.631Z,2169.66
2023-02-07T10:38:11.590Z,2164.36
2023-02-07T10:39:11.602Z,2136.55
2023-02-07T10:40:11.737Z,2139.98
2023-02-07T10:41:11.586Z,2153.85
2023-02-07T10:42:11.546Z,2141.71
2023-02-07T10:43:11.704Z,2092.84
2023-02-07T10:44:11.572Z,2060.42
2023-02-07T10:45:11.555Z,1997.00
2023-02-07T10:46:11.578Z,2010.58
2023-02-07T10:47:11.530Z,1998.50
2023-02-07T10:48:11.504Z,1998.50
2023-02-07T10:49:11.504Z,2038.31
2023-02-07T10:50:13.831Z,2096.14
2023-02-07T10:51:11.615Z,2174.98
2023-02-07T10:52:11.520Z,2281.30
2023-02-07T10:53:11.430Z,2311.03
2023-02-07T10:54:11.426Z,2339.49
2023-02-07T10:55:11.472Z,2375.00
2023-02-07T10:56:11.584Z,2389.94
2023-02-07T10:57:11.455Z,2321.12
2023-02-07T10:58:22.370Z,2351.90
2023-02-07T10:59:11.481Z,2313.04
2023-02-07T11:00:11.414Z,2309.03
2023-02-07T11:01:11.448Z,2182.12
2023-02-07T11:02:11.398Z,2182.12
2023-02-07T11:03:11.348Z,2240.94
2023-02-07T11:04:11.354Z,2275.45
2023-02-07T11:05:11.386Z,2225.94
2023-02-07T11:06:11.394Z,2203.81
2023-02-07T11:07:11.340Z,2227.80
2023-02-07T11:08:11.284Z,2244.73
2023-02-07T11:09:11.311Z,2250.42
2023-02-07T11:10:11.325Z,2311.03
2023-02-07T11:11:11.288Z,2323.14
2023-02-07T11:12:11.255Z,2358.16
2023-02-07T11:13:11.240Z,2456.14
2023-02-07T11:14:11.219Z,2427.01
2023-02-07T11:15:11.277Z,2502.35
2023-02-07T11:16:11.262Z,2620.69
2023-02-07T11:17:11.214Z,2597.66
2023-02-07T11:18:11.226Z,2550.33
2023-02-07T11:19:11.174Z,2507.07
2023-02-07T11:20:11.175Z,2485.98
2023-02-07T11:21:11.281Z,2449.35
2023-02-07T11:22:11.213Z,2474.42
2023-02-07T11:23:11.220Z,2451.61
2023-02-07T11:24:11.208Z,2511.80
2023-02-07T11:25:11.294Z,2545.45
2023-02-07T11:26:11.139Z,2528.52
2023-02-07T11:27:11.170Z,2547.89
2023-02-07T11:28:11.226Z,2636.27
2023-02-07T11:29:11.117Z,2610.40
2023-02-07T11:30:11.090Z,2628.46
2023-02-07T11:31:11.241Z,2695.03
2023-02-07T11:32:11.045Z,2689.58
2023-02-07T11:33:11.040Z,2736.62
2023-02-07T11:34:11.041Z,2788.26
2023-02-07T11:35:11.084Z,2731.01
2023-02-07T11:36:11.069Z,2770.83
2023-02-07T11:37:11.072Z,2773.72
2023-02-07T11:38:11.025Z,2817.80
2023-02-07T11:39:11.003Z,2832.80
2023-02-07T11:40:11.060Z,2797.05
2023-02-07T11:41:11.041Z,2885.03
2023-02-07T11:42:11.012Z,2891.30
2023-02-07T11:43:10.946Z,2945.74
2023-02-07T11:44:11.158Z,2903.93
2023-02-07T11:45:10.947Z,3024.45
2023-02-07T11:46:10.997Z,3026.17
2023-02-07T11:47:10.970Z,2997.18
2023-02-07T11:48:11.102Z,3060.99
2023-02-07T11:49:10.893Z,3050.46
2023-02-07T11:50:10.984Z,2982.06
2023-02-07T11:51:10.932Z,2945.74
2023-02-07T11:52:10.845Z,2878.79
2023-02-07T11:53:11.010Z,3014.16
2023-02-07T11:54:10.870Z,3038.26
2023-02-07T11:55:10.818Z,3059.23
2023-02-07T11:56:10.878Z,3098.43
2023-02-07T11:57:10.836Z,3112.93
2023-02-07T11:58:10.853Z,3084.06
2023-02-07T11:59:10.865Z,3024.45
2023-02-07T12:00:10.834Z,2985.41
2023-02-07T12:01:10.858Z,2945.74
2023-02-07T12:02:10.798Z,2993.81
2023-02-07T12:03:10.737Z,2945.74
2023-02-07T12:04:10.788Z,2955.55
2023-02-07T12:05:10.909Z,2952.27
2023-02-07T12:06:10.746Z,3068.05
2023-02-07T12:07:10.713Z,3094.82
2023-02-07T12:08:10.738Z,3055.72
2023-02-07T12:09:10.746Z,3021.01
2023-02-07T12:10:10.765Z,2997.18
2023-02-07T12:11:10.699Z,2958.84
2023-02-07T12:12:10.753Z,3068.05
2023-02-07T12:13:10.639Z,3017.58
2023-02-07T12:14:10.662Z,3024.45
2023-02-07T12:15:10.626Z,3026.17
2023-02-07T12:16:10.692Z,3012.46
2023-02-07T12:17:10.623Z,2962.14
2023-02-07T12:18:10.621Z,2955.55
2023-02-07T12:19:10.578Z,2907.10
2023-02-07T12:20:10.605Z,2995.50
2023-02-07T12:21:10.616Z,2935.98
2023-02-07T12:22:10.566Z,2939.23